Time;durP1;ratioP1;P1;durP2;ratioP2;P2;SDS_P1;SDS_P2;PMS_P1;PMS_P2;Temp;Humidity;BMP_temperature;BMP_pressure;BME280_temperature;BME280_humidity;BME280_pressure;Samples;Min_cycle;Max_cycle;Signal;HPM_P1;HPM_P2
2021/08/28 00:02:26;;;;;;;3.90;3.40;;;14.60;99.90;;;;;;5044413;28;21198;-91
2021/08/28 00:04:54;;;;;;;5.83;3.23;;;14.50;99.90;;;;;;5046139;28;20661;-93
2021/08/28 00:07:23;;;;;;;3.13;2.93;;;14.50;99.90;;;;;;5042113;28;21223;-92
2021/08/28 00:09:50;;;;;;;4.10;3.20;;;14.50;99.90;;;;;;5039789;28;20666;-93
2021/08/28 00:12:17;;;;;;;3.87;3.10;;;14.50;99.90;;;;;;5041513;28;20623;-92
2021/08/28 00:14:44;;;;;;;3.30;3.00;;;14.50;99.90;;;;;;5047612;28;20626;-92
2021/08/28 00:17:11;;;;;;;3.97;3.30;;;14.50;99.90;;;;;;5058238;28;20634;-93
2021/08/28 00:19:39;;;;;;;4.87;4.43;;;14.50;99.90;;;;;;5060231;28;20742;-92
2021/08/28 00:22:09;;;;;;;5.00;4.60;;;14.50;99.90;;;;;;5048191;28;20722;-94
2021/08/28 00:24:41;;;;;;;5.13;4.40;;;14.50;99.90;;;;;;5046364;28;20754;-93
2021/08/28 00:27:10;;;;;;;4.27;3.87;;;14.50;99.90;;;;;;5048006;28;21142;-92
2021/08/28 00:29:37;;;;;;;5.93;4.00;;;14.50;99.90;;;;;;5045530;28;20659;-92
2021/08/28 00:32:04;;;;;;;3.80;3.50;;;14.50;99.90;;;;;;5051393;28;20630;-92
2021/08/28 00:34:31;;;;;;;3.93;3.40;;;14.50;99.90;;;;;;5044805;28;21193;-94
2021/08/28 00:37:01;;;;;;;4.13;3.03;;;14.50;99.90;;;;;;5051347;28;20645;-93
2021/08/28 00:39:27;;;;;;;5.87;2.97;;;14.50;99.90;;;;;;5049191;28;21027;-94
2021/08/28 00:41:55;;;;;;;3.47;3.10;;;14.50;99.90;;;;;;5050710;28;21358;-95
2021/08/28 00:44:22;;;;;;;3.07;2.80;;;14.50;99.90;;;;;;5049023;28;20662;-95
2021/08/28 00:46:51;;;;;;;3.53;3.23;;;14.50;99.90;;;;;;5043463;28;20635;-96
2021/08/28 00:49:30;;;;;;;3.10;2.90;;;14.60;99.90;;;;;;5046561;28;20634;-95
2021/08/28 00:52:06;;;;;;;3.00;2.80;;;14.60;99.90;;;;;;5044224;28;20648;-96
2021/08/28 00:54:44;;;;;;;3.13;2.83;;;14.60;99.90;;;;;;5048993;28;20716;-94
2021/08/28 00:57:12;;;;;;;3.50;3.20;;;14.50;99.90;;;;;;5043241;28;20729;-94
2021/08/28 00:59:45;;;;;;;2.97;2.67;;;14.50;99.90;;;;;;5047499;28;20671;-96
2021/08/28 01:02:22;;;;;;;5.33;3.00;;;14.50;99.90;;;;;;5052049;28;20641;-96
2021/08/28 01:05:04;;;;;;;3.60;2.73;;;14.50;99.90;;;;;;5045297;28;20704;-96
2021/08/28 01:07:44;;;;;;;3.63;3.00;;;14.50;99.90;;;;;;5052864;28;20658;-94
2021/08/28 01:10:12;;;;;;;3.17;2.63;;;14.40;99.90;;;;;;5060971;28;21504;-96
2021/08/28 01:12:45;;;;;;;4.07;3.00;;;14.40;99.90;;;;;;5046732;28;20684;-95
2021/08/28 01:15:16;;;;;;;5.73;3.10;;;14.40;99.90;;;;;;5051799;28;20667;-94
2021/08/28 01:17:48;;;;;;;3.97;2.90;;;14.40;99.90;;;;;;5062633;28;20637;-95
2021/08/28 01:20:24;;;;;;;2.70;2.50;;;14.40;99.90;;;;;;5065100;28;20661;-93
2021/08/28 01:22:55;;;;;;;5.50;2.60;;;14.40;99.90;;;;;;5068442;28;20689;-96
2021/08/28 01:25:25;;;;;;;3.20;2.90;;;14.40;99.90;;;;;;5066084;28;20662;-96
2021/08/28 01:28:05;;;;;;;4.00;2.70;;;14.40;99.90;;;;;;5045146;28;20654;-93
2021/08/28 01:30:36;;;;;;;3.23;2.40;;;14.40;99.90;;;;;;5036678;28;20665;-94
2021/08/28 01:33:06;;;;;;;2.90;2.67;;;14.30;99.90;;;;;;5045534;28;20627;-96
2021/08/28 01:35:44;;;;;;;2.53;2.17;;;14.30;99.90;;;;;;5052965;28;20636;-96
2021/08/28 01:38:12;;;;;;;4.20;2.70;;;14.30;99.90;;;;;;5045020;28;20630;-94
2021/08/28 01:40:41;;;;;;;2.63;2.43;;;14.40;99.90;;;;;;5051441;28;20668;-93
2021/08/28 01:43:09;;;;;;;3.63;2.40;;;14.40;99.90;;;;;;5054027;28;20645;-93
2021/08/28 01:45:38;;;;;;;3.30;2.90;;;14.40;99.90;;;;;;5042916;28;20641;-94
2021/08/28 01:48:08;;;;;;;3.27;3.00;;;14.40;99.90;;;;;;5045014;28;20633;-96
2021/08/28 01:50:38;;;;;;;3.53;2.70;;;14.40;99.90;;;;;;5048618;28;20649;-96
2021/08/28 01:53:05;;;;;;;3.70;3.20;;;14.30;99.90;;;;;;5051252;28;20633;-95
2021/08/28 01:55:37;;;;;;;5.47;3.63;;;14.30;99.90;;;;;;5043038;28;20618;-96
2021/08/28 01:58:06;;;;;;;3.97;3.67;;;14.30;99.90;;;;;;5053074;28;20665;-95
2021/08/28 02:00:54;;;;;;;3.70;3.40;;;14.30;99.90;;;;;;5052122;28;20665;-95
2021/08/28 02:03:21;;;;;;;4.57;3.70;;;14.30;99.90;;;;;;5047947;28;20679;-94
2021/08/28 02:08:49;;;;;;;4.03;3.40;;;14.40;99.90;;;;;;5049541;28;20606;-95
2021/08/28 02:11:25;;;;;;;4.97;4.00;;;14.30;99.90;;;;;;5068563;28;20645;-95
2021/08/28 02:13:59;;;;;;;5.17;4.40;;;14.30;99.90;;;;;;5068077;28;20618;-94
2021/08/28 02:16:31;;;;;;;4.20;3.90;;;14.30;99.90;;;;;;5060649;28;20616;-96
2021/08/28 02:19:08;;;;;;;4.67;4.27;;;14.20;99.90;;;;;;5049709;28;20648;-95
2021/08/28 02:21:38;;;;;;;4.70;4.40;;;14.20;99.90;;;;;;5057434;28;20738;-96
2021/08/28 02:24:10;;;;;;;5.20;4.70;;;14.20;99.90;;;;;;5052594;28;20715;-95
2021/08/28 02:26:41;;;;;;;7.13;5.00;;;14.20;99.90;;;;;;5058713;28;21068;-96
2021/08/28 02:29:14;;;;;;;6.17;5.57;;;14.20;99.90;;;;;;5055479;28;20733;-96
2021/08/28 02:31:46;;;;;;;6.40;6.00;;;14.20;99.90;;;;;;5056690;28;20677;-94
2021/08/28 02:34:14;;;;;;;7.33;6.70;;;14.10;99.90;;;;;;5052011;28;20629;-96
2021/08/28 03:08:48;;;;;;;8.67;7.97;;;14.10;99.90;;;;;;5029084;28;20759;-95
2021/08/28 03:11:17;;;;;;;9.37;8.63;;;14.10;99.90;;;;;;5031420;28;20643;-96
2021/08/28 03:13:44;;;;;;;9.40;8.80;;;14.10;99.90;;;;;;5030424;28;21041;-94
2021/08/28 03:16:13;;;;;;;10.23;9.50;;;14.10;99.90;;;;;;4992586;28;20656;-94
2021/08/28 03:18:44;;;;;;;10.33;9.43;;;14.10;99.90;;;;;;5013563;28;20651;-94
2021/08/28 03:21:19;;;;;;;11.20;10.30;;;14.10;99.90;;;;;;5020131;28;20631;-93
2021/08/28 03:23:49;;;;;;;10.97;10.07;;;14.00;99.90;;;;;;5013585;28;20631;-93
2021/08/28 03:26:22;;;;;;;12.60;11.70;;;14.10;99.90;;;;;;5005951;28;20630;-94
2021/08/28 03:28:53;;;;;;;11.90;11.00;;;14.10;99.90;;;;;;5020385;28;20650;-93
2021/08/28 03:31:23;;;;;;;14.03;12.83;;;14.00;99.90;;;;;;5022838;28;20631;-93
2021/08/28 03:33:54;;;;;;;12.93;11.83;;;14.00;99.90;;;;;;5017984;28;20652;-93
2021/08/28 03:36:23;;;;;;;13.23;12.10;;;14.00;99.90;;;;;;5012276;28;21283;-94
2021/08/28 03:38:51;;;;;;;13.57;12.27;;;14.00;99.90;;;;;;5011163;28;20631;-93
2021/08/28 03:41:19;;;;;;;13.60;12.60;;;14.00;99.90;;;;;;5014743;28;20734;-93
2021/08/28 03:43:47;;;;;;;13.30;12.33;;;14.00;99.90;;;;;;5035425;28;20703;-93
2021/08/28 03:46:15;;;;;;;13.43;12.30;;;13.90;99.90;;;;;;5036784;28;20701;-93
2021/08/28 03:48:42;;;;;;;13.50;12.40;;;13.90;99.90;;;;;;5015936;28;20654;-95
2021/08/28 03:51:10;;;;;;;13.87;12.53;;;13.90;99.90;;;;;;5019922;28;20726;-93
2021/08/28 03:53:39;;;;;;;14.03;12.93;;;13.90;99.90;;;;;;5018910;28;20678;-94
2021/08/28 03:56:06;;;;;;;15.73;14.33;;;14.00;99.90;;;;;;5016783;28;20749;-94
2021/08/28 03:58:34;;;;;;;16.30;14.90;;;13.90;99.90;;;;;;5016626;28;20630;-93
2021/08/28 04:01:01;;;;;;;14.23;13.03;;;14.00;99.90;;;;;;5022363;28;20651;-94
2021/08/28 04:03:29;;;;;;;14.27;13.10;;;13.90;99.90;;;;;;5025069;28;20637;-93
2021/08/28 04:05:58;;;;;;;15.77;14.47;;;13.90;99.90;;;;;;5020093;28;20659;-93
2021/08/28 04:08:29;;;;;;;15.90;14.70;;;13.90;99.90;;;;;;5012556;28;20627;-94
2021/08/28 04:10:57;;;;;;;16.10;14.70;;;13.90;99.90;;;;;;5023233;28;20635;-94
2021/08/28 04:13:24;;;;;;;15.10;14.00;;;13.90;99.90;;;;;;5011175;28;21067;-94
2021/08/28 04:15:51;;;;;;;16.10;14.60;;;13.90;99.90;;;;;;5025556;28;20746;-93
2021/08/28 04:18:18;;;;;;;15.63;14.37;;;13.90;99.90;;;;;;5018227;28;20753;-93
2021/08/28 04:20:46;;;;;;;14.60;13.43;;;13.90;99.90;;;;;;5017776;28;20628;-93
2021/08/28 04:23:16;;;;;;;14.80;13.60;;;14.00;99.90;;;;;;5018071;28;20654;-94
2021/08/28 04:25:43;;;;;;;14.13;13.03;;;14.00;99.90;;;;;;5015550;28;21237;-93
2021/08/28 04:28:16;;;;;;;16.50;15.10;;;14.00;99.90;;;;;;5020995;28;20642;-95
2021/08/28 04:30:48;;;;;;;17.37;16.07;;;14.00;99.90;;;;;;5029009;28;20634;-96
2021/08/28 04:33:15;;;;;;;15.60;14.40;;;14.00;99.90;;;;;;5028441;28;20643;-95
2021/08/28 04:36:06;;;;;;;15.47;14.20;;;14.10;99.90;;;;;;5016139;28;20647;-96
2021/08/28 04:38:40;;;;;;;15.73;14.60;;;14.00;99.90;;;;;;5000513;28;20655;-95
2021/08/28 04:41:07;;;;;;;15.37;14.20;;;14.00;99.90;;;;;;5027939;28;20650;-95
2021/08/28 04:43:35;;;;;;;16.53;14.93;;;14.00;99.90;;;;;;5012719;28;20650;-92
2021/08/28 04:46:02;;;;;;;16.77;15.47;;;13.90;99.90;;;;;;5018615;28;20655;-94
2021/08/28 04:48:31;;;;;;;18.37;16.80;;;14.00;99.90;;;;;;5029662;28;20618;-96
2021/08/28 04:51:22;;;;;;;17.43;16.03;;;13.90;99.90;;;;;;5022269;28;20635;-96
2021/08/28 04:53:50;;;;;;;19.10;17.40;;;13.90;99.90;;;;;;5036592;28;20690;-94
2021/08/28 04:56:30;;;;;;;19.23;17.77;;;13.90;99.90;;;;;;5005364;28;20624;-96
2021/08/28 04:59:02;;;;;;;18.00;16.60;;;13.90;99.90;;;;;;5031310;28;20716;-96
2021/08/28 05:01:30;;;;;;;18.83;17.20;;;13.90;99.90;;;;;;5019419;28;20628;-95
2021/08/28 05:03:57;;;;;;;17.50;16.10;;;13.90;99.90;;;;;;5030313;28;20727;-95
2021/08/28 05:06:24;;;;;;;19.50;17.80;;;13.90;99.90;;;;;;5023277;28;21334;-95
2021/08/28 05:08:52;;;;;;;18.77;17.07;;;13.80;99.90;;;;;;5024784;28;20673;-95
2021/08/28 05:11:26;;;;;;;19.77;18.20;;;13.90;99.90;;;;;;5013567;28;21064;-93
2021/08/28 05:13:53;;;;;;;19.07;17.27;;;14.00;99.90;;;;;;5025743;28;20658;-93
2021/08/28 05:16:23;;;;;;;18.50;17.10;;;13.90;99.90;;;;;;5017392;28;20622;-93
2021/08/28 05:18:49;;;;;;;18.80;17.33;;;13.90;99.90;;;;;;5014516;28;20635;-92
2021/08/28 05:21:16;;;;;;;18.67;17.20;;;13.80;99.90;;;;;;5013772;28;20683;-91
2021/08/28 05:23:50;;;;;;;18.37;16.80;;;13.90;99.90;;;;;;5011509;28;20670;-92
2021/08/28 05:26:17;;;;;;;20.67;18.83;;;13.80;99.90;;;;;;4993775;28;20725;-93
2021/08/28 05:28:44;;;;;;;17.93;16.60;;;13.80;99.90;;;;;;5022829;28;20634;-91
2021/08/28 05:31:11;;;;;;;17.77;16.47;;;13.90;99.90;;;;;;5018838;28;20636;-92
2021/08/28 05:33:39;;;;;;;19.30;17.60;;;13.80;99.90;;;;;;5018949;28;20656;-92
2021/08/28 05:36:08;;;;;;;19.30;17.80;;;13.80;99.90;;;;;;5024671;28;20654;-94
2021/08/28 05:38:38;;;;;;;19.00;17.47;;;13.90;99.90;;;;;;5035116;28;20642;-96
2021/08/28 05:41:39;;;;;;;21.87;19.97;;;13.90;99.90;;;;;;5039122;28;20655;-96
2021/08/28 05:44:08;;;;;;;21.97;20.27;;;13.90;99.90;;;;;;5031773;28;21257;-95
2021/08/28 05:46:45;;;;;;;20.87;19.27;;;14.00;99.90;;;;;;5029813;28;20742;-94
2021/08/28 05:51:46;;;;;;;21.30;19.60;;;14.00;99.90;;;;;;5248846;22;20698;-95
2021/08/28 05:54:13;;;;;;;21.43;19.53;;;14.10;99.90;;;;;;5099791;28;20613;-96
2021/08/28 05:56:44;;;;;;;22.03;19.93;;;14.10;99.90;;;;;;5098106;28;20637;-95
2021/08/28 05:59:12;;;;;;;21.80;19.50;;;14.20;99.90;;;;;;5098239;28;20621;-94
2021/08/28 06:01:39;;;;;;;20.57;19.00;;;14.10;99.90;;;;;;5094691;28;20729;-95
2021/08/28 06:04:20;;;;;;;20.70;19.20;;;14.20;99.90;;;;;;5097345;28;20647;-95
2021/08/28 06:06:54;;;;;;;20.90;19.30;;;14.20;99.90;;;;;;5096978;28;20648;-95
2021/08/28 06:09:44;;;;;;;21.30;19.70;;;14.20;99.90;;;;;;5096762;28;20648;-96
2021/08/28 06:12:25;;;;;;;19.83;18.20;;;14.30;99.90;;;;;;5096106;28;20664;-96
2021/08/28 06:15:20;;;;;;;19.53;18.03;;;14.30;99.90;;;;;;5091072;28;20613;-95
2021/08/28 06:18:09;;;;;;;19.87;18.27;;;14.30;99.90;;;;;;5095631;28;20704;-96
2021/08/28 06:24:06;;;;;;;19.40;17.90;;;14.40;99.90;;;;;;5088945;28;20601;-96
2021/08/28 06:26:44;;;;;;;20.40;18.83;;;14.50;99.90;;;;;;5107851;22;20752;-95
2021/08/28 06:29:46;;;;;;;17.87;16.57;;;14.60;99.90;;;;;;5091512;28;20632;-96
2021/08/28 06:38:01;;;;;;;15.23;14.13;;;14.80;99.90;;;;;;5074264;28;20625;-96
2021/08/28 06:40:31;;;;;;;15.33;14.23;;;14.70;99.90;;;;;;5084963;28;21074;-96
2021/08/28 06:43:00;;;;;;;14.43;13.43;;;14.90;99.90;;;;;;5089441;28;20672;-96
2021/08/28 06:45:38;;;;;;;15.10;13.80;;;14.90;99.90;;;;;;5080506;28;20665;-96
2021/08/28 06:48:25;;;;;;;14.40;13.20;;;14.90;99.90;;;;;;5087988;28;20704;-96
2021/08/28 06:50:55;;;;;;;14.13;13.10;;;15.00;99.90;;;;;;5091837;28;20652;-96
2021/08/28 06:53:34;;;;;;;14.40;13.20;;;14.90;99.90;;;;;;5084601;28;20655;-96
2021/08/28 06:56:48;;;;;;;13.40;12.30;;;15.10;99.90;;;;;;5086436;28;20684;-96
2021/08/28 06:59:33;;;;;;;12.80;11.83;;;15.10;99.90;;;;;;5076138;28;20701;-96
2021/08/28 07:02:15;;;;;;;11.87;10.97;;;15.00;99.90;;;;;;5077199;28;20716;-96
2021/08/28 07:04:52;;;;;;;12.43;11.30;;;15.10;99.90;;;;;;5092844;28;20643;-96
2021/08/28 07:07:22;;;;;;;11.07;10.27;;;15.00;99.90;;;;;;5092844;28;20640;-96
2021/08/28 07:09:51;;;;;;;10.07;9.27;;;15.10;99.90;;;;;;5093504;28;20723;-96
2021/08/28 07:12:28;;;;;;;11.80;11.00;;;15.20;99.90;;;;;;5092105;28;20617;-95
2021/08/28 07:15:24;;;;;;;11.47;10.37;;;15.20;99.90;;;;;;5093596;28;20632;-96
2021/08/28 07:18:12;;;;;;;11.80;11.00;;;15.30;99.90;;;;;;5087635;28;20650;-96
2021/08/28 07:20:58;;;;;;;11.03;10.17;;;15.40;99.90;;;;;;5082073;28;20621;-96
2021/08/28 07:23:25;;;;;;;10.50;9.60;;;15.40;99.90;;;;;;5075165;28;20621;-96
2021/08/28 07:26:02;;;;;;;11.07;10.27;;;15.40;99.90;;;;;;5083466;28;20688;-96
2021/08/28 07:28:31;;;;;;;10.27;9.47;;;15.40;99.90;;;;;;5067959;28;20628;-96
2021/08/28 07:31:14;;;;;;;10.27;9.37;;;15.30;99.90;;;;;;5090946;28;20625;-96
2021/08/28 07:33:44;;;;;;;9.97;9.27;;;15.30;99.90;;;;;;5074987;28;20686;-96
2021/08/28 07:36:12;;;;;;;9.83;9.03;;;15.10;99.90;;;;;;5083304;28;20732;-96
2021/08/28 07:38:40;;;;;;;11.07;10.00;;;15.00;99.90;;;;;;5075531;28;20724;-96
2021/08/28 07:41:08;;;;;;;10.17;9.43;;;15.00;99.90;;;;;;5076048;28;20656;-95
2021/08/28 07:43:36;;;;;;;11.37;10.47;;;15.10;99.90;;;;;;5072091;28;20725;-95
2021/08/28 07:46:04;;;;;;;9.37;8.67;;;15.10;99.90;;;;;;5072361;28;20769;-94
2021/08/28 07:48:33;;;;;;;10.70;9.80;;;15.20;99.90;;;;;;5076050;28;20643;-93
2021/08/28 07:51:01;;;;;;;10.30;9.37;;;15.20;99.90;;;;;;5075502;28;20641;-94
2021/08/28 07:53:30;;;;;;;9.63;8.73;;;15.20;99.90;;;;;;5078868;28;20675;-94
2021/08/28 07:55:58;;;;;;;9.87;9.17;;;15.20;99.90;;;;;;5078455;28;20649;-95
2021/08/28 07:58:25;;;;;;;9.07;8.47;;;15.20;99.90;;;;;;5083639;28;20660;-95
2021/08/28 08:00:53;;;;;;;9.73;8.93;;;15.30;99.90;;;;;;5082309;28;20719;-95
2021/08/28 08:03:27;;;;;;;8.67;8.03;;;15.40;99.90;;;;;;5075575;28;20652;-96
2021/08/28 08:05:57;;;;;;;7.87;7.30;;;15.40;99.90;;;;;;5076245;28;20682;-95
2021/08/28 08:08:24;;;;;;;9.47;8.57;;;15.60;99.90;;;;;;5077894;28;20644;-96
2021/08/28 08:10:54;;;;;;;6.83;6.33;;;15.90;99.90;;;;;;5076521;28;21251;-96
2021/08/28 08:13:27;;;;;;;5.60;5.10;;;16.50;99.90;;;;;;5078323;28;20749;-96
2021/08/28 08:15:58;;;;;;;6.83;4.20;;;17.00;99.90;;;;;;5078895;28;21219;-96
2021/08/28 08:18:28;;;;;;;4.00;3.70;;;17.20;99.90;;;;;;5076808;28;20740;-96
2021/08/28 08:21:03;;;;;;;4.30;4.00;;;17.10;99.90;;;;;;5080748;28;20735;-96
2021/08/28 08:23:30;;;;;;;3.67;3.17;;;16.90;99.90;;;;;;5084263;28;21175;-96
2021/08/28 08:25:57;;;;;;;3.23;2.93;;;16.50;99.90;;;;;;5076337;28;20773;-94
2021/08/28 08:28:32;;;;;;;2.60;2.40;;;16.40;99.90;;;;;;5079284;28;20625;-96
2021/08/28 08:30:59;;;;;;;3.70;3.30;;;16.40;99.90;;;;;;5076530;28;20634;-94
2021/08/28 08:33:26;;;;;;;3.17;2.93;;;16.40;99.90;;;;;;5080250;28;20648;-95
2021/08/28 08:36:04;;;;;;;2.57;2.40;;;16.50;99.90;;;;;;5086288;28;20877;-94
2021/08/28 08:38:32;;;;;;;3.60;2.50;;;16.40;99.90;;;;;;5078468;28;20697;-95
2021/08/28 08:41:03;;;;;;;3.67;2.90;;;16.50;99.90;;;;;;5073871;28;20644;-95
2021/08/28 08:43:32;;;;;;;2.37;1.93;;;16.60;99.90;;;;;;5072467;28;20633;-95
2021/08/28 08:46:03;;;;;;;2.97;2.77;;;16.60;99.90;;;;;;5070430;28;20775;-96
2021/08/28 08:48:43;;;;;;;2.57;2.37;;;16.90;99.90;;;;;;5073590;28;20734;-94
2021/08/28 08:51:23;;;;;;;1.97;1.80;;;17.10;99.90;;;;;;5067973;28;20636;-96
2021/08/28 08:53:58;;;;;;;2.77;1.97;;;17.10;99.90;;;;;;5069345;28;20979;-96
2021/08/28 08:56:26;;;;;;;1.93;1.83;;;16.90;99.90;;;;;;5076772;28;20635;-96
2021/08/28 08:59:00;;;;;;;3.83;1.77;;;17.20;99.90;;;;;;5078096;28;20647;-95
2021/08/28 09:01:29;;;;;;;2.40;1.87;;;17.10;99.90;;;;;;5073855;28;20620;-93
2021/08/28 09:03:57;;;;;;;2.07;1.97;;;17.00;99.90;;;;;;5079163;28;20620;-96
2021/08/28 09:06:25;;;;;;;1.53;1.43;;;17.20;99.90;;;;;;5076537;28;20657;-95
2021/08/28 09:08:53;;;;;;;1.70;1.50;;;17.20;99.90;;;;;;5082873;28;20661;-96
2021/08/28 09:11:23;;;;;;;1.60;1.50;;;17.10;99.90;;;;;;5075918;28;20627;-93
2021/08/28 09:14:17;;;;;;;1.73;1.57;;;17.20;99.90;;;;;;5077462;28;20693;-93
2021/08/28 09:16:47;;;;;;;1.80;1.70;;;17.10;99.90;;;;;;5072264;28;20621;-93
2021/08/28 09:19:15;;;;;;;2.07;1.57;;;17.20;99.90;;;;;;5077687;28;20617;-94
2021/08/28 09:21:44;;;;;;;2.00;1.50;;;17.10;99.90;;;;;;5074050;28;20635;-93
2021/08/28 09:24:12;;;;;;;1.87;1.77;;;17.20;99.90;;;;;;5071554;28;21290;-92
2021/08/28 09:26:44;;;;;;;3.47;3.17;;;17.50;99.90;;;;;;5071292;28;21246;-91
2021/08/28 09:29:14;;;;;;;2.17;1.80;;;17.60;99.90;;;;;;5070241;28;21267;-93
2021/08/28 09:31:52;;;;;;;1.80;1.70;;;17.40;99.90;;;;;;5070433;28;20586;-93
2021/08/28 09:34:23;;;;;;;2.93;2.10;;;17.10;99.90;;;;;;5080505;28;20655;-94
2021/08/28 09:36:55;;;;;;;2.80;1.90;;;17.10;99.90;;;;;;5073366;28;21294;-92
2021/08/28 09:39:45;;;;;;;2.40;2.00;;;17.10;99.90;;;;;;5076247;28;20640;-93
2021/08/28 09:42:20;;;;;;;1.97;1.80;;;17.00;99.90;;;;;;5076094;28;20732;-95
2021/08/28 09:44:49;;;;;;;3.13;1.50;;;17.00;99.90;;;;;;5079940;28;20621;-95
2021/08/28 09:47:18;;;;;;;2.20;2.00;;;17.10;99.90;;;;;;5081593;28;20653;-94
2021/08/28 09:49:48;;;;;;;3.03;1.80;;;17.20;99.90;;;;;;5082654;28;20639;-94
2021/08/28 09:52:18;;;;;;;3.43;2.33;;;17.00;99.90;;;;;;5076220;28;21242;-95
2021/08/28 09:54:45;;;;;;;4.80;2.30;;;16.90;99.90;;;;;;5074475;28;20629;-95
2021/08/28 09:57:46;;;;;;;2.30;2.10;;;17.00;99.90;;;;;;5072018;28;20630;-96
2021/08/28 10:00:22;;;;;;;2.37;2.17;;;16.90;99.90;;;;;;5058790;28;20637;-96
2021/08/28 10:02:58;;;;;;;4.50;2.57;;;16.80;99.90;;;;;;5059665;28;20617;-96
2021/08/28 10:05:31;;;;;;;3.07;2.87;;;16.60;99.90;;;;;;5072605;28;20652;-95
2021/08/28 10:08:00;;;;;;;2.60;2.50;;;16.40;99.90;;;;;;5074852;28;20637;-96
2021/08/28 10:10:30;;;;;;;2.83;2.63;;;16.40;99.90;;;;;;5081666;28;20647;-96
2021/08/28 10:13:00;;;;;;;2.80;2.60;;;16.30;99.90;;;;;;5072560;28;20673;-96
2021/08/28 10:15:29;;;;;;;3.07;2.87;;;16.20;99.90;;;;;;5078126;28;20652;-95
2021/08/28 10:17:58;;;;;;;2.70;2.50;;;16.10;99.90;;;;;;5076501;28;20993;-96
2021/08/28 10:20:27;;;;;;;2.70;2.50;;;16.00;99.90;;;;;;5079806;28;20662;-94
2021/08/28 10:25:38;;;;;;;2.70;2.50;;;16.10;99.90;;;;;;5086997;28;20645;-94
2021/08/28 10:36:58;;;;;;;3.00;2.80;;;15.90;99.90;;;;;;5089309;28;20736;-96
2021/08/28 10:39:34;;;;;;;3.00;2.80;;;15.90;99.90;;;;;;5092004;28;20621;-95
2021/08/28 10:55:49;;;;;;;3.87;3.53;;;15.80;99.90;;;;;;5078003;28;21199;-95
2021/08/28 10:58:22;;;;;;;5.80;3.60;;;16.00;99.90;;;;;;5083410;28;20632;-95
2021/08/28 11:00:59;;;;;;;4.10;3.80;;;15.90;99.90;;;;;;5079507;28;20663;-95
2021/08/28 11:03:44;;;;;;;5.30;3.57;;;16.20;99.90;;;;;;5085462;28;20660;-96
2021/08/28 11:06:24;;;;;;;3.50;3.30;;;16.30;99.90;;;;;;5076472;28;20768;-95
2021/08/28 11:08:53;;;;;;;3.73;3.43;;;16.30;99.90;;;;;;5075255;28;20657;-95
2021/08/28 11:11:23;;;;;;;3.33;3.03;;;16.70;99.90;;;;;;5071173;28;20635;-95
2021/08/28 11:14:04;;;;;;;2.77;2.57;;;17.10;99.90;;;;;;5078290;28;20625;-96
2021/08/28 11:17:16;;;;;;;2.87;2.67;;;17.70;99.90;;;;;;5075471;28;20656;-96
2021/08/28 11:19:53;;;;;;;3.33;3.07;;;18.20;99.90;;;;;;5081199;28;20634;-95
2021/08/28 11:22:24;;;;;;;4.33;2.67;;;18.20;99.90;;;;;;5079719;28;20629;-95
2021/08/28 11:39:47;;;;;;;1.73;1.23;;;18.70;99.90;;;;;;5084651;28;20648;-95
2021/08/28 11:44:58;;;;;;;4.33;1.60;;;19.10;99.90;;;;;;5087418;28;20602;-96
2021/08/28 11:50:09;;;;;;;1.33;1.23;;;19.20;99.90;;;;;;5076389;28;20613;-96
2021/08/28 11:52:40;;;;;;;1.17;1.07;;;19.20;99.90;;;;;;5084662;28;20791;-95
2021/08/28 12:08:25;;;;;;;1.07;0.97;;;19.00;99.90;;;;;;5083714;28;20661;-95
2021/08/28 12:14:09;;;;;;;0.90;0.73;;;19.40;99.90;;;;;;5073206;28;20656;-94
2021/08/28 12:16:40;;;;;;;1.23;1.13;;;19.50;99.90;;;;;;5076495;28;20680;-94
2021/08/28 12:19:09;;;;;;;0.70;0.70;;;19.40;99.90;;;;;;5075084;28;20625;-95
2021/08/28 12:21:41;;;;;;;1.23;1.13;;;19.70;99.90;;;;;;5077999;28;20617;-96
2021/08/28 12:28:06;;;;;;;0.70;0.70;;;20.80;99.90;;;;;;5142741;27;24540;-95
2021/08/28 12:44:13;;;;;;;0.60;0.50;;;22.40;96.00;;;;;;5060239;27;24540;-92
2021/08/28 12:46:41;;;;;;;0.67;0.67;;;21.00;99.90;;;;;;5049158;28;20974;-93
2021/08/28 12:49:16;;;;;;;0.90;0.70;;;21.70;99.90;;;;;;5056622;28;20629;-95
2021/08/28 12:52:00;;;;;;;1.00;0.67;;;21.60;99.80;;;;;;5059910;28;20680;-94
2021/08/28 12:54:43;;;;;;;0.67;0.67;;;21.80;99.80;;;;;;5061797;28;20645;-93
2021/08/28 13:08:10;;;;;;;0.70;0.70;;;21.40;98.80;;;;;;5046639;28;20649;-95
2021/08/28 13:10:42;;;;;;;1.53;1.00;;;21.20;97.40;;;;;;5053669;28;21198;-94
2021/08/28 13:16:23;;;;;;;0.60;0.60;;;20.80;98.30;;;;;;5052700;28;20609;-93
2021/08/28 13:25:44;;;;;;;0.70;0.60;;;20.30;99.90;;;;;;5054495;28;20622;-94
2021/08/28 13:28:54;;;;;;;1.13;1.03;;;20.80;98.70;;;;;;5056965;28;20629;-94
2021/08/28 13:31:51;;;;;;;1.00;0.90;;;20.30;99.00;;;;;;5045944;28;20681;-94
2021/08/28 13:37:57;;;;;;;0.53;0.50;;;20.60;97.80;;;;;;5054656;28;20613;-93
2021/08/28 13:40:30;;;;;;;1.30;1.20;;;21.00;97.10;;;;;;5054374;28;20646;-94
2021/08/28 13:42:57;;;;;;;0.80;0.70;;;21.40;97.20;;;;;;5053844;28;20742;-95
2021/08/28 13:48:18;;;;;;;0.60;0.60;;;23.80;90.60;;;;;;5041553;28;20603;-96
2021/08/28 13:56:44;;;;;;;2.70;0.60;;;24.50;83.70;;;;;;5035670;28;20630;-95
2021/08/28 14:09:57;;;;;;;1.17;1.07;;;24.60;90.30;;;;;;5042789;28;20645;-94
2021/08/28 14:19:05;;;;;;;2.63;1.20;;;26.60;84.80;;;;;;5036938;28;20712;-94
2021/08/28 14:21:35;;;;;;;1.00;0.90;;;26.40;86.80;;;;;;5043573;28;20649;-95
2021/08/28 14:26:56;;;;;;;1.40;1.23;;;24.50;90.60;;;;;;5040178;28;20749;-94
2021/08/28 14:29:26;;;;;;;1.07;0.97;;;23.80;90.20;;;;;;5043652;28;20692;-93
2021/08/28 14:31:55;;;;;;;1.10;1.00;;;23.00;90.90;;;;;;5039840;28;20678;-93
2021/08/28 14:34:27;;;;;;;1.80;1.33;;;22.90;91.90;;;;;;5037970;28;20654;-93
2021/08/28 14:39:41;;;;;;;3.43;1.40;;;21.20;96.50;;;;;;5035686;28;20626;-94
2021/08/28 14:50:20;;;;;;;1.40;0.83;;;20.10;99.90;;;;;;5038181;28;20674;-93
2021/08/28 14:52:47;;;;;;;1.00;0.97;;;19.90;99.90;;;;;;5029108;28;20688;-93
2021/08/28 14:55:17;;;;;;;1.20;1.00;;;19.60;99.90;;;;;;5031364;28;20726;-94
2021/08/28 14:57:51;;;;;;;1.27;1.17;;;19.60;99.90;;;;;;5039172;28;20630;-91
2021/08/28 15:00:19;;;;;;;1.33;1.23;;;19.10;99.90;;;;;;5034693;28;20634;-93
2021/08/28 15:02:46;;;;;;;1.87;0.90;;;18.80;99.90;;;;;;5037420;28;20710;-92
2021/08/28 15:05:16;;;;;;;1.63;1.53;;;18.70;99.90;;;;;;5028334;28;20630;-92
2021/08/28 15:07:43;;;;;;;1.33;1.23;;;18.70;99.90;;;;;;5039974;28;20645;-93
2021/08/28 15:10:11;;;;;;;1.37;1.27;;;18.60;99.90;;;;;;5054796;28;20630;-94
2021/08/28 15:12:39;;;;;;;1.50;1.40;;;18.60;99.90;;;;;;5032307;28;20689;-94
2021/08/28 15:15:08;;;;;;;2.20;2.00;;;18.50;99.90;;;;;;5031734;28;20631;-93
2021/08/28 15:20:26;;;;;;;1.60;1.50;;;18.40;99.90;;;;;;5036510;28;20650;-94
2021/08/28 15:23:01;;;;;;;2.40;2.20;;;18.30;99.90;;;;;;5031451;28;20650;-94
2021/08/28 15:28:10;;;;;;;2.33;2.13;;;18.10;99.90;;;;;;5039182;28;20626;-94
2021/08/28 15:33:20;;;;;;;5.63;2.90;;;17.70;99.90;;;;;;5036568;28;20666;-95
2021/08/28 15:35:49;;;;;;;2.27;2.07;;;17.70;99.90;;;;;;5040203;28;20631;-93
2021/08/28 15:38:30;;;;;;;1.90;1.80;;;17.60;99.90;;;;;;5039314;28;20641;-93
2021/08/28 15:43:56;;;;;;;2.50;2.27;;;17.30;99.90;;;;;;5051124;28;20713;-93
2021/08/28 15:46:25;;;;;;;2.60;2.50;;;17.20;99.90;;;;;;5038886;28;20638;-93
2021/08/28 15:48:56;;;;;;;2.80;2.60;;;17.20;99.90;;;;;;5038336;28;20611;-93
2021/08/28 15:51:28;;;;;;;2.50;2.30;;;17.20;99.90;;;;;;5037961;28;20634;-94
2021/08/28 15:57:02;;;;;;;3.20;2.60;;;17.10;99.90;;;;;;5039704;28;20619;-93
2021/08/28 15:59:31;;;;;;;2.97;2.77;;;17.00;99.90;;;;;;5032859;28;20628;-94
2021/08/28 16:04:47;;;;;;;2.73;2.50;;;16.90;99.90;;;;;;5041413;28;20620;-93
2021/08/28 16:07:31;;;;;;;3.03;2.83;;;16.90;99.90;;;;;;5040617;28;20638;-94
2021/08/28 16:12:44;;;;;;;3.23;3.03;;;16.90;99.90;;;;;;5043557;28;20666;-93
2021/08/28 16:15:27;;;;;;;2.90;2.70;;;16.70;99.90;;;;;;5038699;28;21163;-95
2021/08/28 16:18:01;;;;;;;2.70;2.60;;;16.70;99.90;;;;;;5038761;28;21424;-95
2021/08/28 16:20:30;;;;;;;3.10;2.90;;;16.80;99.90;;;;;;5046429;28;20619;-93
2021/08/28 16:26:32;;;;;;;3.17;2.97;;;16.90;99.90;;;;;;5037794;28;21402;-94
2021/08/28 16:28:59;;;;;;;3.10;2.80;;;16.90;99.90;;;;;;5035510;28;20619;-95
2021/08/28 16:31:34;;;;;;;3.37;3.07;;;16.80;99.90;;;;;;5047642;28;20729;-93
2021/08/28 16:42:20;;;;;;;2.47;2.30;;;16.60;99.90;;;;;;5038352;28;20670;-94
2021/08/28 16:50:18;;;;;;;2.80;2.60;;;16.40;99.90;;;;;;5041551;28;20613;-95
2021/08/28 16:52:45;;;;;;;4.80;4.50;;;16.40;99.90;;;;;;5034867;28;20674;-94
2021/08/28 16:55:14;;;;;;;4.87;4.07;;;16.40;99.90;;;;;;5037571;28;20639;-95